sensor_id;sensor_type;location;lat;lon;timestamp;temperature;humidity
1594;DHT22;790;47.000;16.084;2023-04-15T00:00:30;8.60;99.90
1594;DHT22;790;47.000;16.084;2023-04-15T00:02:59;8.70;99.90
1594;DHT22;790;47.000;16.084;2023-04-15T00:05:28;8.70;99.90
1594;DHT22;790;47.000;16.084;2023-04-15T00:07:58;8.70;99.90
1594;DHT22;790;47.000;16.084;2023-04-15T00:10:26;8.70;99.90
1594;DHT22;790;47.000;16.084;2023-04-15T00:12:58;8.70;99.90
1594;DHT22;790;47.000;16.084;2023-04-15T00:15:26;8.70;99.90
1594;DHT22;790;47.000;16.084;2023-04-15T00:17:53;8.70;99.90
1594;DHT22;790;47.000;16.084;2023-04-15T00:20:21;8.70;99.90
1594;DHT22;790;47.000;16.084;2023-04-15T00:22:48;8.60;99.90
1594;DHT22;790;47.000;16.084;2023-04-15T00:25:16;8.60;99.90
1594;DHT22;790;47.000;16.084;2023-04-15T00:27:44;8.70;99.90
1594;DHT22;790;47.000;16.084;2023-04-15T00:30:12;8.70;99.90
1594;DHT22;790;47.000;16.084;2023-04-15T00:32:40;8.70;99.90
1594;DHT22;790;47.000;16.084;2023-04-15T00:35:07;8.70;99.90
1594;DHT22;790;47.000;16.084;2023-04-15T00:37:35;8.70;99.90
1594;DHT22;790;47.000;16.084;2023-04-15T00:40:05;8.70;99.90
1594;DHT22;790;47.000;16.084;2023-04-15T00:42:33;8.70;99.90
1594;DHT22;790;47.000;16.084;2023-04-15T00:45:01;8.70;99.90
1594;DHT22;790;47.000;16.084;2023-04-15T00:47:31;8.70;99.90
1594;DHT22;790;47.000;16.084;2023-04-15T00:49:59;8.70;99.90
1594;DHT22;790;47.000;16.084;2023-04-15T00:52:26;8.70;99.90
1594;DHT22;790;47.000;16.084;2023-04-15T00:54:54;8.70;99.90
1594;DHT22;790;47.000;16.084;2023-04-15T00:57:21;8.70;99.90
1594;DHT22;790;47.000;16.084;2023-04-15T00:59:49;8.70;99.90
1594;DHT22;790;47.000;16.084;2023-04-15T01:02:17;8.70;99.90
1594;DHT22;790;47.000;16.084;2023-04-15T01:04:46;8.70;99.90
1594;DHT22;790;47.000;16.084;2023-04-15T01:07:13;8.80;99.90
1594;DHT22;790;47.000;16.084;2023-04-15T01:09:40;8.80;99.90
1594;DHT22;790;47.000;16.084;2023-04-15T01:12:10;8.80;99.90
1594;DHT22;790;47.000;16.084;2023-04-15T01:14:38;8.80;99.90
1594;DHT22;790;47.000;16.084;2023-04-15T01:17:05;8.80;99.90
1594;DHT22;790;47.000;16.084;2023-04-15T01:19:32;8.80;99.90
1594;DHT22;790;47.000;16.084;2023-04-15T01:22:01;8.90;99.90
1594;DHT22;790;47.000;16.084;2023-04-15T01:24:29;8.80;99.90
1594;DHT22;790;47.000;16.084;2023-04-15T01:26:59;8.80;99.90
1594;DHT22;790;47.000;16.084;2023-04-15T01:29:26;8.80;99.90
1594;DHT22;790;47.000;16.084;2023-04-15T01:31:55;8.80;99.90
1594;DHT22;790;47.000;16.084;2023-04-15T01:34:22;8.80;99.90
1594;DHT22;790;47.000;16.084;2023-04-15T01:36:49;8.80;99.90
1594;DHT22;790;47.000;16.084;2023-04-15T01:39:16;8.90;99.90
1594;DHT22;790;47.000;16.084;2023-04-15T01:41:44;8.80;99.90
1594;DHT22;790;47.000;16.084;2023-04-15T01:44:12;8.80;99.90
1594;DHT22;790;47.000;16.084;2023-04-15T01:46:40;8.70;99.90
1594;DHT22;790;47.000;16.084;2023-04-15T01:49:07;8.70;99.90
1594;DHT22;790;47.000;16.084;2023-04-15T01:51:34;8.80;99.90
1594;DHT22;790;47.000;16.084;2023-04-15T01:54:05;8.70;99.90
1594;DHT22;790;47.000;16.084;2023-04-15T01:56:35;8.80;99.90
1594;DHT22;790;47.000;16.084;2023-04-15T01:59:02;8.80;99.90
1594;DHT22;790;47.000;16.084;2023-04-15T02:01:31;8.80;99.90
1594;DHT22;790;47.000;16.084;2023-04-15T02:03:58;8.80;99.90
1594;DHT22;790;47.000;16.084;2023-04-15T02:06:25;8.80;99.90
1594;DHT22;790;47.000;16.084;2023-04-15T02:08:53;8.80;99.90
1594;DHT22;790;47.000;16.084;2023-04-15T02:11:20;8.70;99.90
1594;DHT22;790;47.000;16.084;2023-04-15T02:13:48;8.80;99.90
1594;DHT22;790;47.000;16.084;2023-04-15T02:16:16;8.80;99.90
1594;DHT22;790;47.000;16.084;2023-04-15T02:18:45;8.70;99.90
1594;DHT22;790;47.000;16.084;2023-04-15T02:21:12;8.70;99.90
1594;DHT22;790;47.000;16.084;2023-04-15T02:23:39;8.60;99.90
1594;DHT22;790;47.000;16.084;2023-04-15T02:26:08;8.60;99.90
1594;DHT22;790;47.000;16.084;2023-04-15T02:28:36;8.60;99.90
1594;DHT22;790;47.000;16.084;2023-04-15T02:31:05;8.60;99.90
1594;DHT22;790;47.000;16.084;2023-04-15T02:33:32;8.60;99.90
1594;DHT22;790;47.000;16.084;2023-04-15T02:36:02;8.60;99.90
1594;DHT22;790;47.000;16.084;2023-04-15T02:38:30;8.60;99.90
1594;DHT22;790;47.000;16.084;2023-04-15T02:40:57;8.60;99.90
1594;DHT22;790;47.000;16.084;2023-04-15T02:43:24;8.50;99.90
1594;DHT22;790;47.000;16.084;2023-04-15T02:45:51;8.50;99.90
1594;DHT22;790;47.000;16.084;2023-04-15T02:48:18;8.50;99.90
1594;DHT22;790;47.000;16.084;2023-04-15T02:50:45;8.50;99.90
1594;DHT22;790;47.000;16.084;2023-04-15T02:53:14;8.60;99.90
1594;DHT22;790;47.000;16.084;2023-04-15T02:55:42;8.60;99.90
1594;DHT22;790;47.000;16.084;2023-04-15T02:58:10;8.60;99.90
1594;DHT22;790;47.000;16.084;2023-04-15T03:00:37;8.50;99.90
1594;DHT22;790;47.000;16.084;2023-04-15T03:03:05;8.50;99.90
1594;DHT22;790;47.000;16.084;2023-04-15T03:05:32;8.50;99.90
1594;DHT22;790;47.000;16.084;2023-04-15T03:07:59;8.50;99.90
1594;DHT22;790;47.000;16.084;2023-04-15T03:10:29;8.50;99.90
1594;DHT22;790;47.000;16.084;2023-04-15T03:12:56;8.50;99.90
1594;DHT22;790;47.000;16.084;2023-04-15T03:15:23;8.50;99.90
1594;DHT22;790;47.000;16.084;2023-04-15T03:17:51;8.40;99.90
1594;DHT22;790;47.000;16.084;2023-04-15T03:20:18;8.50;99.90
1594;DHT22;790;47.000;16.084;2023-04-15T03:22:45;8.40;99.90
1594;DHT22;790;47.000;16.084;2023-04-15T03:25:12;8.40;99.90
1594;DHT22;790;47.000;16.084;2023-04-15T03:27:41;8.40;99.90
1594;DHT22;790;47.000;16.084;2023-04-15T03:30:09;8.40;99.90
1594;DHT22;790;47.000;16.084;2023-04-15T03:32:37;8.40;99.90
1594;DHT22;790;47.000;16.084;2023-04-15T03:35:05;8.50;99.90
1594;DHT22;790;47.000;16.084;2023-04-15T03:37:32;8.50;99.90
1594;DHT22;790;47.000;16.084;2023-04-15T03:40:00;8.40;99.90
1594;DHT22;790;47.000;16.084;2023-04-15T03:42:27;8.40;99.90
1594;DHT22;790;47.000;16.084;2023-04-15T03:44:55;8.40;99.90
1594;DHT22;790;47.000;16.084;2023-04-15T03:47:22;8.50;99.90
1594;DHT22;790;47.000;16.084;2023-04-15T03:49:50;8.50;99.90
1594;DHT22;790;47.000;16.084;2023-04-15T03:52:17;8.50;99.90
1594;DHT22;790;47.000;16.084;2023-04-15T03:54:44;8.50;99.90
1594;DHT22;790;47.000;16.084;2023-04-15T03:57:11;8.40;99.90
1594;DHT22;790;47.000;16.084;2023-04-15T03:59:38;8.40;99.90
1594;DHT22;790;47.000;16.084;2023-04-15T04:02:07;8.50;99.90
1594;DHT22;790;47.000;16.084;2023-04-15T04:04:34;8.50;99.90
1594;DHT22;790;47.000;16.084;2023-04-15T04:07:01;8.50;99.90
1594;DHT22;790;47.000;16.084;2023-04-15T04:09:28;8.50;99.90
1594;DHT22;790;47.000;16.084;2023-04-15T04:11:55;8.50;99.90
1594;DHT22;790;47.000;16.084;2023-04-15T04:14:22;8.50;99.90
1594;DHT22;790;47.000;16.084;2023-04-15T04:16:54;8.50;99.90
1594;DHT22;790;47.000;16.084;2023-04-15T04:19:27;8.50;99.90
1594;DHT22;790;47.000;16.084;2023-04-15T04:21:54;8.50;99.90
1594;DHT22;790;47.000;16.084;2023-04-15T04:24:21;8.50;99.90
1594;DHT22;790;47.000;16.084;2023-04-15T04:26:48;8.40;99.90
1594;DHT22;790;47.000;16.084;2023-04-15T04:29:16;8.40;99.90
1594;DHT22;790;47.000;16.084;2023-04-15T04:31:43;8.50;99.90
1594;DHT22;790;47.000;16.084;2023-04-15T04:34:11;8.50;99.90
1594;DHT22;790;47.000;16.084;2023-04-15T04:36:40;8.50;99.90
1594;DHT22;790;47.000;16.084;2023-04-15T04:39:07;8.50;99.90
1594;DHT22;790;47.000;16.084;2023-04-15T04:41:34;8.40;99.90
1594;DHT22;790;47.000;16.084;2023-04-15T04:44:01;8.40;99.90
1594;DHT22;790;47.000;16.084;2023-04-15T04:46:28;8.50;99.90
1594;DHT22;790;47.000;16.084;2023-04-15T04:48:56;8.60;99.90
1594;DHT22;790;47.000;16.084;2023-04-15T04:51:24;8.60;99.90
1594;DHT22;790;47.000;16.084;2023-04-15T04:53:54;8.50;99.90
1594;DHT22;790;47.000;16.084;2023-04-15T04:56:22;8.50;99.90
1594;DHT22;790;47.000;16.084;2023-04-15T04:58:49;8.50;99.90
1594;DHT22;790;47.000;16.084;2023-04-15T05:01:16;8.50;99.90
1594;DHT22;790;47.000;16.084;2023-04-15T05:03:43;8.50;99.90
1594;DHT22;790;47.000;16.084;2023-04-15T05:06:11;8.50;99.90
1594;DHT22;790;47.000;16.084;2023-04-15T05:08:38;8.60;99.90
1594;DHT22;790;47.000;16.084;2023-04-15T05:11:08;8.60;99.90
1594;DHT22;790;47.000;16.084;2023-04-15T05:13:35;8.70;99.90
1594;DHT22;790;47.000;16.084;2023-04-15T05:16:04;8.70;99.90
1594;DHT22;790;47.000;16.084;2023-04-15T05:18:32;8.70;99.90
1594;DHT22;790;47.000;16.084;2023-04-15T05:21:00;8.80;99.90
1594;DHT22;790;47.000;16.084;2023-04-15T05:23:28;8.80;99.90
1594;DHT22;790;47.000;16.084;2023-04-15T05:25:56;8.80;99.90
1594;DHT22;790;47.000;16.084;2023-04-15T05:28:27;8.80;99.90
1594;DHT22;790;47.000;16.084;2023-04-15T05:30:56;8.80;99.90
1594;DHT22;790;47.000;16.084;2023-04-15T05:33:25;8.80;99.90
1594;DHT22;790;47.000;16.084;2023-04-15T05:35:53;8.80;99.90
1594;DHT22;790;47.000;16.084;2023-04-15T05:38:20;8.90;99.90
1594;DHT22;790;47.000;16.084;2023-04-15T05:40:48;8.90;99.90
1594;DHT22;790;47.000;16.084;2023-04-15T05:43:15;8.90;99.90
1594;DHT22;790;47.000;16.084;2023-04-15T05:45:44;9.00;99.90
1594;DHT22;790;47.000;16.084;2023-04-15T05:48:12;9.00;99.90
1594;DHT22;790;47.000;16.084;2023-04-15T05:50:40;9.00;99.90
1594;DHT22;790;47.000;16.084;2023-04-15T05:53:08;9.00;99.90
1594;DHT22;790;47.000;16.084;2023-04-15T05:55:35;9.00;99.90
1594;DHT22;790;47.000;16.084;2023-04-15T05:58:05;9.00;99.90
1594;DHT22;790;47.000;16.084;2023-04-15T06:00:32;9.00;99.90
1594;DHT22;790;47.000;16.084;2023-04-15T06:03:02;9.10;99.90
1594;DHT22;790;47.000;16.084;2023-04-15T06:05:29;9.10;99.90
1594;DHT22;790;47.000;16.084;2023-04-15T06:07:56;9.10;99.90
1594;DHT22;790;47.000;16.084;2023-04-15T06:10:23;9.10;99.90
1594;DHT22;790;47.000;16.084;2023-04-15T06:12:52;9.10;99.90
1594;DHT22;790;47.000;16.084;2023-04-15T06:15:19;9.10;99.90
1594;DHT22;790;47.000;16.084;2023-04-15T06:17:47;9.00;99.90
1594;DHT22;790;47.000;16.084;2023-04-15T06:20:15;9.00;99.90
1594;DHT22;790;47.000;16.084;2023-04-15T06:22:43;9.00;99.90
1594;DHT22;790;47.000;16.084;2023-04-15T06:25:10;9.00;99.90
1594;DHT22;790;47.000;16.084;2023-04-15T06:27:37;9.00;99.90
1594;DHT22;790;47.000;16.084;2023-04-15T06:30:06;9.00;99.90
1594;DHT22;790;47.000;16.084;2023-04-15T06:32:33;9.00;99.90
1594;DHT22;790;47.000;16.084;2023-04-15T06:35:03;9.00;99.90
1594;DHT22;790;47.000;16.084;2023-04-15T06:37:32;9.00;99.90
1594;DHT22;790;47.000;16.084;2023-04-15T06:40:01;9.10;99.90
1594;DHT22;790;47.000;16.084;2023-04-15T06:42:30;9.10;99.90
1594;DHT22;790;47.000;16.084;2023-04-15T06:44:59;9.00;99.90
1594;DHT22;790;47.000;16.084;2023-04-15T06:47:27;9.10;99.90
1594;DHT22;790;47.000;16.084;2023-04-15T06:49:55;9.00;99.90
1594;DHT22;790;47.000;16.084;2023-04-15T06:52:22;9.00;99.90
1594;DHT22;790;47.000;16.084;2023-04-15T06:54:51;9.00;99.90
1594;DHT22;790;47.000;16.084;2023-04-15T06:57:18;9.00;99.90
1594;DHT22;790;47.000;16.084;2023-04-15T06:59:46;9.10;99.90
1594;DHT22;790;47.000;16.084;2023-04-15T07:02:13;9.10;99.90
1594;DHT22;790;47.000;16.084;2023-04-15T07:04:41;9.00;99.90
1594;DHT22;790;47.000;16.084;2023-04-15T07:07:08;9.10;99.90
1594;DHT22;790;47.000;16.084;2023-04-15T07:09:37;9.00;99.90
1594;DHT22;790;47.000;16.084;2023-04-15T07:12:06;9.10;99.90
1594;DHT22;790;47.000;16.084;2023-04-15T07:14:36;9.10;99.90
1594;DHT22;790;47.000;16.084;2023-04-15T07:17:03;9.20;99.90
1594;DHT22;790;47.000;16.084;2023-04-15T07:19:31;9.20;99.90
1594;DHT22;790;47.000;16.084;2023-04-15T07:21:58;9.30;99.90
1594;DHT22;790;47.000;16.084;2023-04-15T07:24:25;9.30;99.90
1594;DHT22;790;47.000;16.084;2023-04-15T07:26:53;9.30;99.90
1594;DHT22;790;47.000;16.084;2023-04-15T07:29:22;9.40;99.90
1594;DHT22;790;47.000;16.084;2023-04-15T07:31:49;9.40;99.90
1594;DHT22;790;47.000;16.084;2023-04-15T07:34:17;9.50;99.90
1594;DHT22;790;47.000;16.084;2023-04-15T07:36:45;9.50;99.90
1594;DHT22;790;47.000;16.084;2023-04-15T07:39:15;9.50;99.90
1594;DHT22;790;47.000;16.084;2023-04-15T07:41:42;9.50;99.90
1594;DHT22;790;47.000;16.084;2023-04-15T07:44:10;9.60;99.90
1594;DHT22;790;47.000;16.084;2023-04-15T07:46:38;9.60;99.90
1594;DHT22;790;47.000;16.084;2023-04-15T07:49:05;9.70;99.90
1594;DHT22;790;47.000;16.084;2023-04-15T07:51:33;9.70;99.90
1594;DHT22;790;47.000;16.084;2023-04-15T07:54:01;9.70;99.90
1594;DHT22;790;47.000;16.084;2023-04-15T07:56:29;9.60;99.90
1594;DHT22;790;47.000;16.084;2023-04-15T07:58:56;9.60;99.90
1594;DHT22;790;47.000;16.084;2023-04-15T08:01:23;9.60;99.90
1594;DHT22;790;47.000;16.084;2023-04-15T08:03:52;9.70;99.90
1594;DHT22;790;47.000;16.084;2023-04-15T08:06:20;9.80;99.90
1594;DHT22;790;47.000;16.084;2023-04-15T08:08:47;9.80;99.90
1594;DHT22;790;47.000;16.084;2023-04-15T08:11:14;9.80;99.90
1594;DHT22;790;47.000;16.084;2023-04-15T08:13:42;9.90;99.90
1594;DHT22;790;47.000;16.084;2023-04-15T08:16:17;9.90;99.90
1594;DHT22;790;47.000;16.084;2023-04-15T08:18:46;10.00;99.90
1594;DHT22;790;47.000;16.084;2023-04-15T08:21:18;10.00;99.90
1594;DHT22;790;47.000;16.084;2023-04-15T08:23:47;10.00;99.90
1594;DHT22;790;47.000;16.084;2023-04-15T08:26:15;10.10;99.90
1594;DHT22;790;47.000;16.084;2023-04-15T08:28:44;10.10;99.90
1594;DHT22;790;47.000;16.084;2023-04-15T08:31:11;10.20;99.90
1594;DHT22;790;47.000;16.084;2023-04-15T08:33:39;10.20;99.90
1594;DHT22;790;47.000;16.084;2023-04-15T08:36:07;10.20;99.90
1594;DHT22;790;47.000;16.084;2023-04-15T08:38:39;10.30;99.90
1594;DHT22;790;47.000;16.084;2023-04-15T08:41:14;10.30;99.90
1594;DHT22;790;47.000;16.084;2023-04-15T08:43:48;10.30;99.90
1594;DHT22;790;47.000;16.084;2023-04-15T08:46:18;10.30;99.90
1594;DHT22;790;47.000;16.084;2023-04-15T08:48:47;10.30;99.90
1594;DHT22;790;47.000;16.084;2023-04-15T08:51:15;10.30;99.90
1594;DHT22;790;47.000;16.084;2023-04-15T08:53:45;10.30;99.90
1594;DHT22;790;47.000;16.084;2023-04-15T08:56:14;10.30;99.90
1594;DHT22;790;47.000;16.084;2023-04-15T08:58:44;10.30;99.90
1594;DHT22;790;47.000;16.084;2023-04-15T09:01:12;10.30;99.90
1594;DHT22;790;47.000;16.084;2023-04-15T09:03:40;10.40;99.90
1594;DHT22;790;47.000;16.084;2023-04-15T09:06:08;10.30;99.90
1594;DHT22;790;47.000;16.084;2023-04-15T09:08:37;10.30;99.90
1594;DHT22;790;47.000;16.084;2023-04-15T09:11:05;10.30;99.90
1594;DHT22;790;47.000;16.084;2023-04-15T09:13:33;10.30;99.90
1594;DHT22;790;47.000;16.084;2023-04-15T09:16:01;10.30;99.90
1594;DHT22;790;47.000;16.084;2023-04-15T09:18:30;10.40;99.90
1594;DHT22;790;47.000;16.084;2023-04-15T09:21:04;10.40;99.90
1594;DHT22;790;47.000;16.084;2023-04-15T09:23:33;10.40;99.90
1594;DHT22;790;47.000;16.084;2023-04-15T09:26:02;10.40;99.90
1594;DHT22;790;47.000;16.084;2023-04-15T09:28:30;10.40;99.90
1594;DHT22;790;47.000;16.084;2023-04-15T09:30:58;10.50;99.90
1594;DHT22;790;47.000;16.084;2023-04-15T09:33:27;10.50;99.90
1594;DHT22;790;47.000;16.084;2023-04-15T09:35:59;10.50;99.90
1594;DHT22;790;47.000;16.084;2023-04-15T09:38:27;10.60;99.90
1594;DHT22;790;47.000;16.084;2023-04-15T09:40:54;10.70;99.90
1594;DHT22;790;47.000;16.084;2023-04-15T09:43:26;10.80;99.90
1594;DHT22;790;47.000;16.084;2023-04-15T09:46:04;10.90;99.90
1594;DHT22;790;47.000;16.084;2023-04-15T09:48:33;10.90;99.90
1594;DHT22;790;47.000;16.084;2023-04-15T09:51:01;11.00;99.90
1594;DHT22;790;47.000;16.084;2023-04-15T09:53:28;10.90;99.90
1594;DHT22;790;47.000;16.084;2023-04-15T09:55:59;11.00;99.90
1594;DHT22;790;47.000;16.084;2023-04-15T09:58:29;11.00;99.90
1594;DHT22;790;47.000;16.084;2023-04-15T10:00:58;11.00;99.90
1594;DHT22;790;47.000;16.084;2023-04-15T10:03:33;11.10;99.90
1594;DHT22;790;47.000;16.084;2023-04-15T10:06:02;11.00;99.90
1594;DHT22;790;47.000;16.084;2023-04-15T10:08:31;11.00;99.90
1594;DHT22;790;47.000;16.084;2023-04-15T10:11:03;11.00;99.90
1594;DHT22;790;47.000;16.084;2023-04-15T10:13:33;11.10;99.90
1594;DHT22;790;47.000;16.084;2023-04-15T10:16:06;11.20;99.90
1594;DHT22;790;47.000;16.084;2023-04-15T10:18:42;11.20;99.90
1594;DHT22;790;47.000;16.084;2023-04-15T10:21:10;11.30;99.90
1594;DHT22;790;47.000;16.084;2023-04-15T10:23:40;11.40;99.90
1594;DHT22;790;47.000;16.084;2023-04-15T10:26:09;11.40;99.90
1594;DHT22;790;47.000;16.084;2023-04-15T10:28:37;11.40;99.90
1594;DHT22;790;47.000;16.084;2023-04-15T10:31:05;11.50;99.90
1594;DHT22;790;47.000;16.084;2023-04-15T10:33:35;11.50;99.90
1594;DHT22;790;47.000;16.084;2023-04-15T10:36:05;11.50;99.90
1594;DHT22;790;47.000;16.084;2023-04-15T10:38:34;11.50;99.90
1594;DHT22;790;47.000;16.084;2023-04-15T10:41:15;11.60;99.90
1594;DHT22;790;47.000;16.084;2023-04-15T10:43:47;11.60;99.90
1594;DHT22;790;47.000;16.084;2023-04-15T10:46:21;11.60;99.90
1594;DHT22;790;47.000;16.084;2023-04-15T10:48:53;11.60;99.90
1594;DHT22;790;47.000;16.084;2023-04-15T10:51:28;11.70;99.90
1594;DHT22;790;47.000;16.084;2023-04-15T10:53:58;11.70;99.90
1594;DHT22;790;47.000;16.084;2023-04-15T10:56:27;11.70;99.90
1594;DHT22;790;47.000;16.084;2023-04-15T10:58:58;11.60;99.90
1594;DHT22;790;47.000;16.084;2023-04-15T11:01:50;11.60;99.90
1594;DHT22;790;47.000;16.084;2023-04-15T11:04:52;11.70;99.90
1594;DHT22;790;47.000;16.084;2023-04-15T11:07:37;11.70;99.90
1594;DHT22;790;47.000;16.084;2023-04-15T11:13:18;11.80;99.90
1594;DHT22;790;47.000;16.084;2023-04-15T11:15:48;11.80;99.90
1594;DHT22;790;47.000;16.084;2023-04-15T11:18:19;11.90;99.90
1594;DHT22;790;47.000;16.084;2023-04-15T11:20:49;11.90;99.90
1594;DHT22;790;47.000;16.084;2023-04-15T11:23:18;11.90;99.90
1594;DHT22;790;47.000;16.084;2023-04-15T11:25:47;12.00;99.90
1594;DHT22;790;47.000;16.084;2023-04-15T11:28:14;12.10;99.90
1594;DHT22;790;47.000;16.084;2023-04-15T11:30:41;12.10;99.90
1594;DHT22;790;47.000;16.084;2023-04-15T11:33:10;12.00;99.90
1594;DHT22;790;47.000;16.084;2023-04-15T11:35:40;11.80;99.90
1594;DHT22;790;47.000;16.084;2023-04-15T11:38:11;11.80;99.90
1594;DHT22;790;47.000;16.084;2023-04-15T11:40:40;11.80;99.90
1594;DHT22;790;47.000;16.084;2023-04-15T11:43:10;11.70;99.90
1594;DHT22;790;47.000;16.084;2023-04-15T11:45:46;11.70;99.90
1594;DHT22;790;47.000;16.084;2023-04-15T11:48:15;11.70;99.90
1594;DHT22;790;47.000;16.084;2023-04-15T11:50:42;11.70;99.90
1594;DHT22;790;47.000;16.084;2023-04-15T11:53:12;11.60;99.90
1594;DHT22;790;47.000;16.084;2023-04-15T11:55:45;11.70;99.90
1594;DHT22;790;47.000;16.084;2023-04-15T11:58:14;11.70;99.90
1594;DHT22;790;47.000;16.084;2023-04-15T12:00:46;11.80;99.90
1594;DHT22;790;47.000;16.084;2023-04-15T12:03:19;11.90;99.90
1594;DHT22;790;47.000;16.084;2023-04-15T12:06:17;11.80;99.90
1594;DHT22;790;47.000;16.084;2023-04-15T12:09:00;11.90;99.90
1594;DHT22;790;47.000;16.084;2023-04-15T12:11:30;12.10;99.90
1594;DHT22;790;47.000;16.084;2023-04-15T12:14:03;12.00;99.90
1594;DHT22;790;47.000;16.084;2023-04-15T12:16:33;12.10;99.90
1594;DHT22;790;47.000;16.084;2023-04-15T12:19:04;12.10;99.90
1594;DHT22;790;47.000;16.084;2023-04-15T12:21:36;12.10;99.90
1594;DHT22;790;47.000;16.084;2023-04-15T12:24:06;12.20;99.90
1594;DHT22;790;47.000;16.084;2023-04-15T12:26:36;12.30;99.90
1594;DHT22;790;47.000;16.084;2023-04-15T12:29:05;12.30;99.90
1594;DHT22;790;47.000;16.084;2023-04-15T12:31:34;12.20;99.90
1594;DHT22;790;47.000;16.084;2023-04-15T12:34:06;12.30;99.90
1594;DHT22;790;47.000;16.084;2023-04-15T12:36:34;12.40;99.90
1594;DHT22;790;47.000;16.084;2023-04-15T12:39:02;12.40;99.90
1594;DHT22;790;47.000;16.084;2023-04-15T12:41:32;12.60;99.90
1594;DHT22;790;47.000;16.084;2023-04-15T12:44:00;12.70;99.90
1594;DHT22;790;47.000;16.084;2023-04-15T12:46:27;12.80;99.90
1594;DHT22;790;47.000;16.084;2023-04-15T12:48:56;12.80;99.90
1594;DHT22;790;47.000;16.084;2023-04-15T12:51:24;12.90;99.90
1594;DHT22;790;47.000;16.084;2023-04-15T12:53:52;13.00;99.90
1594;DHT22;790;47.000;16.084;2023-04-15T12:56:19;13.10;99.90
1594;DHT22;790;47.000;16.084;2023-04-15T12:58:47;13.10;99.90
1594;DHT22;790;47.000;16.084;2023-04-15T13:01:15;13.10;99.90
1594;DHT22;790;47.000;16.084;2023-04-15T13:03:42;13.20;99.90
1594;DHT22;790;47.000;16.084;2023-04-15T13:06:10;13.20;99.90
1594;DHT22;790;47.000;16.084;2023-04-15T13:08:37;13.20;99.90
1594;DHT22;790;47.000;16.084;2023-04-15T13:11:05;13.30;99.90
1594;DHT22;790;47.000;16.084;2023-04-15T13:13:33;13.20;99.90
1594;DHT22;790;47.000;16.084;2023-04-15T13:16:02;13.20;99.90
1594;DHT22;790;47.000;16.084;2023-04-15T13:18:29;13.30;99.90
1594;DHT22;790;47.000;16.084;2023-04-15T13:20:56;13.40;99.90
1594;DHT22;790;47.000;16.084;2023-04-15T13:23:24;13.30;99.90
1594;DHT22;790;47.000;16.084;2023-04-15T13:25:51;13.40;99.90
1594;DHT22;790;47.000;16.084;2023-04-15T13:28:18;13.30;99.90
1594;DHT22;790;47.000;16.084;2023-04-15T13:30:45;13.00;99.90
1594;DHT22;790;47.000;16.084;2023-04-15T13:33:16;12.90;99.90
1594;DHT22;790;47.000;16.084;2023-04-15T13:35:43;12.90;99.90
1594;DHT22;790;47.000;16.084;2023-04-15T13:38:11;13.00;99.90
1594;DHT22;790;47.000;16.084;2023-04-15T13:40:38;13.10;99.90
1594;DHT22;790;47.000;16.084;2023-04-15T13:43:05;13.20;99.90
1594;DHT22;790;47.000;16.084;2023-04-15T13:45:32;13.40;99.90
1594;DHT22;790;47.000;16.084;2023-04-15T13:47:59;13.50;99.90
1594;DHT22;790;47.000;16.084;2023-04-15T13:50:28;13.60;99.90
1594;DHT22;790;47.000;16.084;2023-04-15T13:52:55;13.60;99.90
1594;DHT22;790;47.000;16.084;2023-04-15T13:55:22;13.50;99.90
1594;DHT22;790;47.000;16.084;2023-04-15T13:57:50;13.50;99.90
1594;DHT22;790;47.000;16.084;2023-04-15T14:00:19;13.60;99.90
1594;DHT22;790;47.000;16.084;2023-04-15T14:02:47;13.60;99.90
1594;DHT22;790;47.000;16.084;2023-04-15T14:05:14;13.70;99.90
1594;DHT22;790;47.000;16.084;2023-04-15T14:07:43;13.60;99.90
1594;DHT22;790;47.000;16.084;2023-04-15T14:10:10;13.70;99.90
1594;DHT22;790;47.000;16.084;2023-04-15T14:12:37;13.70;99.90
1594;DHT22;790;47.000;16.084;2023-04-15T14:15:05;13.70;99.90
1594;DHT22;790;47.000;16.084;2023-04-15T14:17:32;13.70;99.90
1594;DHT22;790;47.000;16.084;2023-04-15T14:20:00;13.70;99.90
1594;DHT22;790;47.000;16.084;2023-04-15T14:22:27;13.70;99.90
1594;DHT22;790;47.000;16.084;2023-04-15T14:24:55;13.60;99.90
1594;DHT22;790;47.000;16.084;2023-04-15T14:27:22;13.60;99.90
1594;DHT22;790;47.000;16.084;2023-04-15T14:29:50;13.50;99.90
1594;DHT22;790;47.000;16.084;2023-04-15T14:32:18;13.40;99.90
1594;DHT22;790;47.000;16.084;2023-04-15T14:34:45;13.30;99.90
1594;DHT22;790;47.000;16.084;2023-04-15T14:37:12;13.30;99.90
1594;DHT22;790;47.000;16.084;2023-04-15T14:39:39;13.20;99.90
1594;DHT22;790;47.000;16.084;2023-04-15T14:42:08;13.10;99.90
1594;DHT22;790;47.000;16.084;2023-04-15T14:44:35;13.10;99.90
1594;DHT22;790;47.000;16.084;2023-04-15T14:47:02;12.90;99.90
1594;DHT22;790;47.000;16.084;2023-04-15T14:49:29;12.80;99.90
1594;DHT22;790;47.000;16.084;2023-04-15T14:51:56;12.70;99.90
1594;DHT22;790;47.000;16.084;2023-04-15T14:54:24;12.50;99.90
1594;DHT22;790;47.000;16.084;2023-04-15T14:56:51;12.60;99.90
1594;DHT22;790;47.000;16.084;2023-04-15T14:59:20;12.70;99.90
1594;DHT22;790;47.000;16.084;2023-04-15T15:01:47;12.80;99.90
1594;DHT22;790;47.000;16.084;2023-04-15T15:04:14;12.90;99.90
1594;DHT22;790;47.000;16.084;2023-04-15T15:06:41;12.90;99.90
1594;DHT22;790;47.000;16.084;2023-04-15T15:09:08;12.90;99.90
1594;DHT22;790;47.000;16.084;2023-04-15T15:11:35;12.90;99.90
1594;DHT22;790;47.000;16.084;2023-04-15T15:14:03;12.90;99.90
1594;DHT22;790;47.000;16.084;2023-04-15T15:16:31;12.90;99.90
1594;DHT22;790;47.000;16.084;2023-04-15T15:19:00;13.00;99.90
1594;DHT22;790;47.000;16.084;2023-04-15T15:21:27;13.00;99.90
1594;DHT22;790;47.000;16.084;2023-04-15T15:23:54;12.80;99.90
1594;DHT22;790;47.000;16.084;2023-04-15T15:26:21;12.90;99.90
1594;DHT22;790;47.000;16.084;2023-04-15T15:28:49;12.80;99.90
1594;DHT22;790;47.000;16.084;2023-04-15T15:31:16;12.80;99.90
1594;DHT22;790;47.000;16.084;2023-04-15T15:33:44;12.90;99.90
1594;DHT22;790;47.000;16.084;2023-04-15T15:36:11;12.90;99.90
1594;DHT22;790;47.000;16.084;2023-04-15T15:38:39;12.90;99.90
1594;DHT22;790;47.000;16.084;2023-04-15T15:41:07;12.80;99.90
1594;DHT22;790;47.000;16.084;2023-04-15T15:43:34;12.70;99.90
1594;DHT22;790;47.000;16.084;2023-04-15T15:46:02;12.60;99.90
1594;DHT22;790;47.000;16.084;2023-04-15T15:48:29;12.50;99.90
1594;DHT22;790;47.000;16.084;2023-04-15T15:50:58;12.50;99.90
1594;DHT22;790;47.000;16.084;2023-04-15T15:53:25;12.60;99.90
1594;DHT22;790;47.000;16.084;2023-04-15T15:55:52;12.60;99.90
1594;DHT22;790;47.000;16.084;2023-04-15T15:58:19;12.50;99.90
1594;DHT22;790;47.000;16.084;2023-04-15T16:00:47;12.50;99.90
1594;DHT22;790;47.000;16.084;2023-04-15T16:03:14;12.50;99.90
1594;DHT22;790;47.000;16.084;2023-04-15T16:05:41;12.40;99.90
1594;DHT22;790;47.000;16.084;2023-04-15T16:08:10;12.30;99.90
1594;DHT22;790;47.000;16.084;2023-04-15T16:10:37;12.30;99.90
1594;DHT22;790;47.000;16.084;2023-04-15T16:13:04;12.30;99.90
1594;DHT22;790;47.000;16.084;2023-04-15T16:15:31;12.20;99.90
1594;DHT22;790;47.000;16.084;2023-04-15T16:17:59;12.20;99.90
1594;DHT22;790;47.000;16.084;2023-04-15T16:20:26;12.20;99.90